METAR Data
IDs: Format: Raw Decoded Include TAF

Data at: 0757 UTC 03 Aug 2021

ESGR 030750Z AUTO VRB02KT 9999 NCD 16/08 Q1010